Time;durP1;ratioP1;P1;durP2;ratioP2;P2;SDS_P1;SDS_P2;PMS_P1;PMS_P2;Temp;Humidity;BMP_temperature;BMP_pressure;BME280_temperature;BME280_humidity;BME280_pressure;Samples;Min_cycle;Max_cycle;Signal;HPM_P1;HPM_P2
2022/01/12 00:00:29;;;;;;;17.50;10.03;;;3.60;99.90;;;;;;5054883;28;20225;-58
2022/01/12 00:02:56;;;;;;;18.43;10.33;;;3.50;99.90;;;;;;5058267;28;20220;-59
2022/01/12 00:05:23;;;;;;;17.67;10.73;;;3.50;99.90;;;;;;5056575;28;20248;-59
2022/01/12 00:07:51;;;;;;;19.83;10.37;;;3.50;99.90;;;;;;5059366;28;20207;-58
2022/01/12 00:10:20;;;;;;;17.00;10.23;;;3.50;99.90;;;;;;5057377;28;20223;-59
2022/01/12 00:12:47;;;;;;;19.03;10.20;;;3.60;99.90;;;;;;5058297;28;20210;-59
2022/01/12 00:15:15;;;;;;;18.47;10.80;;;3.50;99.90;;;;;;5057242;28;20224;-61
2022/01/12 00:17:42;;;;;;;18.90;10.70;;;3.50;99.90;;;;;;5057739;28;20233;-59
2022/01/12 00:20:10;;;;;;;16.27;10.33;;;3.40;99.90;;;;;;5057534;28;20196;-58
2022/01/12 00:22:39;;;;;;;18.57;10.83;;;3.40;99.90;;;;;;5060933;28;20218;-58
2022/01/12 00:33:16;;;;;;;15.33;10.50;;;3.50;99.90;;;;;;5058297;28;20671;-58
2022/01/12 00:35:46;;;;;;;18.50;11.47;;;3.40;99.90;;;;;;5054521;28;20452;-59
2022/01/12 00:38:15;;;;;;;23.70;12.20;;;3.40;99.90;;;;;;5057936;28;20264;-58
2022/01/12 00:40:44;;;;;;;22.00;11.40;;;3.50;99.90;;;;;;5057042;28;20236;-58
2022/01/12 00:43:11;;;;;;;18.17;10.73;;;3.50;99.90;;;;;;5055994;28;20245;-55
2022/01/12 00:45:42;;;;;;;21.67;11.73;;;3.50;99.90;;;;;;5057222;28;20192;-56
2022/01/12 00:48:09;;;;;;;19.13;11.53;;;3.40;99.90;;;;;;5054654;28;20210;-58
2022/01/12 00:50:37;;;;;;;19.80;11.50;;;3.50;99.90;;;;;;5054980;28;20620;-58
2022/01/12 00:53:05;;;;;;;20.33;12.00;;;3.50;99.90;;;;;;5056989;28;20218;-57
2022/01/12 00:55:32;;;;;;;22.77;12.97;;;3.50;99.90;;;;;;5056107;28;20295;-56
2022/01/12 00:57:59;;;;;;;20.90;12.43;;;3.40;99.90;;;;;;5058126;28;20631;-57
2022/01/12 01:00:28;;;;;;;20.07;12.20;;;3.40;99.90;;;;;;5055877;28;20310;-56
2022/01/12 01:02:55;;;;;;;23.30;12.20;;;3.40;99.90;;;;;;5057657;28;20203;-57
2022/01/12 01:05:24;;;;;;;20.93;12.67;;;3.40;99.90;;;;;;5054955;28;20207;-57
2022/01/12 01:07:51;;;;;;;20.80;11.97;;;3.30;99.90;;;;;;5056297;28;20651;-58
2022/01/12 01:10:30;;;;;;;20.50;12.83;;;3.40;99.90;;;;;;5056719;28;20316;-57
2022/01/12 01:12:58;;;;;;;24.40;12.87;;;3.40;99.90;;;;;;5056248;28;20245;-58
2022/01/12 01:26:45;;;;;;;26.80;12.97;;;3.30;99.90;;;;;;5053722;28;20591;-57
2022/01/12 01:29:12;;;;;;;24.53;12.97;;;3.30;99.90;;;;;;5055793;28;20312;-57
2022/01/12 01:31:41;;;;;;;24.33;13.63;;;3.40;99.90;;;;;;5058304;28;20667;-57
2022/01/12 01:34:10;;;;;;;24.03;12.30;;;3.30;99.90;;;;;;5054435;28;20239;-59
2022/01/12 01:36:49;;;;;;;26.60;14.03;;;3.30;99.90;;;;;;5055032;28;20231;-57
2022/01/12 01:39:19;;;;;;;21.00;12.43;;;3.40;99.90;;;;;;5054745;28;20721;-58
2022/01/12 01:42:01;;;;;;;26.63;14.70;;;3.30;99.90;;;;;;5068872;28;20227;-56
2022/01/12 01:55:23;;;;;;;22.57;13.83;;;3.20;99.90;;;;;;5058652;28;20219;-57
2022/01/12 01:57:50;;;;;;;23.50;14.30;;;3.20;99.90;;;;;;5060191;28;21065;-59
2022/01/12 02:00:20;;;;;;;30.83;15.57;;;3.20;99.90;;;;;;5059463;28;20315;-58
2022/01/12 02:02:47;;;;;;;25.37;14.23;;;3.20;99.90;;;;;;5061097;28;20628;-56
2022/01/12 02:05:14;;;;;;;26.13;14.53;;;3.20;99.90;;;;;;5058712;28;20210;-59
2022/01/12 02:07:42;;;;;;;25.37;13.63;;;3.10;99.90;;;;;;5059032;28;20234;-60
2022/01/12 02:10:09;;;;;;;26.37;15.17;;;3.10;99.90;;;;;;5059324;28;20317;-60
2022/01/12 02:12:36;;;;;;;23.03;14.67;;;3.10;99.90;;;;;;5057763;28;20296;-60
2022/01/12 02:15:17;;;;;;;25.53;14.57;;;3.00;99.90;;;;;;5060124;28;20773;-58
2022/01/12 02:40:37;;;;;;;34.00;16.93;;;3.20;99.90;;;;;;5060204;28;20238;-58
2022/01/12 02:51:14;;;;;;;33.03;16.20;;;3.10;99.90;;;;;;5058256;28;20296;-59
2022/01/12 02:53:44;;;;;;;34.67;19.03;;;3.10;99.90;;;;;;5054653;28;20644;-58
2022/01/12 02:56:16;;;;;;;35.20;18.37;;;3.20;99.90;;;;;;5057865;28;20675;-57
2022/01/12 02:58:46;;;;;;;35.97;19.13;;;3.40;99.90;;;;;;5058143;28;20206;-56
2022/01/12 03:03:44;;;;;;;36.50;19.43;;;3.30;99.90;;;;;;5058855;28;20855;-57
2022/01/12 03:06:16;;;;;;;39.70;19.17;;;3.20;99.90;;;;;;5056694;28;20274;-56
2022/01/12 03:08:44;;;;;;;36.20;19.17;;;3.20;99.90;;;;;;5055481;28;20234;-55
2022/01/12 03:11:13;;;;;;;40.90;19.33;;;3.40;99.90;;;;;;5060611;28;21909;-56
2022/01/12 03:13:41;;;;;;;34.47;18.23;;;3.60;99.90;;;;;;5060031;28;20203;-57
2022/01/12 03:16:16;;;;;;;38.07;19.23;;;3.60;99.90;;;;;;5057745;28;20215;-57
2022/01/12 03:18:45;;;;;;;35.50;19.60;;;3.50;99.90;;;;;;5059329;28;20708;-57
2022/01/12 03:21:14;;;;;;;38.13;19.73;;;3.50;99.90;;;;;;5059228;28;20785;-56
2022/01/12 03:23:41;;;;;;;36.07;18.93;;;3.50;99.90;;;;;;5057611;28;20209;-58
2022/01/12 03:26:11;;;;;;;36.37;19.77;;;3.40;99.90;;;;;;5055454;28;20217;-56
2022/01/12 03:28:40;;;;;;;32.97;19.37;;;3.40;99.90;;;;;;5056081;28;20245;-57
2022/01/12 03:31:16;;;;;;;40.03;18.43;;;3.40;99.90;;;;;;5058087;28;20215;-55
2022/01/12 03:38:59;;;;;;;37.70;19.23;;;3.50;99.90;;;;;;5057879;28;20217;-55
2022/01/12 03:41:29;;;;;;;37.93;19.23;;;3.50;99.90;;;;;;5057680;28;20721;-57
2022/01/12 03:43:58;;;;;;;33.43;18.50;;;3.50;99.90;;;;;;5056907;28;20207;-57
2022/01/12 03:46:27;;;;;;;33.40;19.17;;;3.60;99.90;;;;;;5054887;28;20294;-56
2022/01/12 03:48:55;;;;;;;37.57;20.07;;;3.70;99.90;;;;;;5057616;28;20209;-57
2022/01/12 03:51:21;;;;;;;32.97;18.20;;;3.60;99.90;;;;;;5057335;28;20202;-55
2022/01/12 03:53:49;;;;;;;30.40;18.73;;;3.80;99.90;;;;;;5058933;28;20626;-57
2022/01/12 03:56:16;;;;;;;32.83;19.00;;;3.70;99.90;;;;;;5057638;28;20219;-57
2022/01/12 03:58:43;;;;;;;39.00;20.20;;;3.70;99.90;;;;;;5058233;28;20343;-58
2022/01/12 04:01:10;;;;;;;33.37;19.40;;;3.80;99.90;;;;;;5055881;28;20211;-56
2022/01/12 04:03:42;;;;;;;32.30;18.40;;;3.70;99.90;;;;;;5058208;28;20216;-57
2022/01/12 04:08:55;;;;;;;31.90;18.87;;;3.80;99.90;;;;;;5052771;28;20249;-56
2022/01/12 04:11:22;;;;;;;35.37;18.10;;;3.70;99.90;;;;;;5059683;28;20203;-56
2022/01/12 04:13:50;;;;;;;35.43;18.70;;;3.70;99.90;;;;;;5058094;28;20280;-57
2022/01/12 04:16:17;;;;;;;32.73;18.57;;;3.60;99.90;;;;;;5055750;28;20215;-56
2022/01/12 04:18:44;;;;;;;34.50;20.33;;;3.50;99.90;;;;;;5058931;28;20191;-54
2022/01/12 04:21:13;;;;;;;37.43;19.13;;;3.70;99.90;;;;;;5055410;28;20199;-56
2022/01/12 04:23:41;;;;;;;31.73;17.83;;;3.80;99.90;;;;;;5057295;28;20279;-57
2022/01/12 04:26:11;;;;;;;32.60;19.00;;;3.60;99.90;;;;;;5055158;28;20228;-54
2022/01/12 04:28:41;;;;;;;30.80;18.43;;;3.60;99.90;;;;;;5056588;28;20207;-57
2022/01/12 04:31:10;;;;;;;32.17;18.17;;;3.80;99.90;;;;;;5056418;28;20294;-54
2022/01/12 04:33:38;;;;;;;30.93;17.90;;;3.80;99.90;;;;;;5057117;28;20214;-57
2022/01/12 04:36:07;;;;;;;34.00;19.27;;;3.70;99.90;;;;;;5055674;28;20218;-57
2022/01/12 04:38:37;;;;;;;36.00;18.10;;;3.70;99.90;;;;;;5054279;28;20194;-58
2022/01/12 04:41:06;;;;;;;34.97;19.13;;;3.70;99.90;;;;;;5057141;28;20238;-57
2022/01/12 04:43:36;;;;;;;27.80;16.73;;;3.60;99.90;;;;;;5055341;28;20200;-57
2022/01/12 04:48:49;;;;;;;31.70;19.87;;;3.50;99.90;;;;;;5055664;28;21114;-62
2022/01/12 04:51:17;;;;;;;31.93;19.03;;;3.40;99.90;;;;;;5057434;28;20219;-56
2022/01/12 04:53:44;;;;;;;35.13;19.53;;;3.50;99.90;;;;;;5055749;28;20217;-56
2022/01/12 04:56:11;;;;;;;32.53;18.40;;;3.70;99.90;;;;;;5056285;28;20233;-54
2022/01/12 04:58:38;;;;;;;38.67;19.70;;;3.60;99.90;;;;;;5057254;28;20222;-57
2022/01/12 05:01:09;;;;;;;33.13;18.13;;;3.60;99.90;;;;;;5054962;28;20205;-57
2022/01/12 05:14:44;;;;;;;33.37;18.67;;;3.70;99.90;;;;;;5033345;28;20234;-57
2022/01/12 05:17:11;;;;;;;29.67;18.43;;;3.90;99.90;;;;;;5040852;28;20302;-55
2022/01/12 05:19:38;;;;;;;37.67;21.63;;;3.90;99.90;;;;;;5058250;28;20289;-54
2022/01/12 05:22:05;;;;;;;36.13;19.13;;;3.70;99.90;;;;;;5060575;28;20200;-55
2022/01/12 05:24:33;;;;;;;38.77;20.33;;;3.80;99.90;;;;;;5058500;28;20255;-56
2022/01/12 05:27:19;;;;;;;40.77;18.87;;;3.80;99.90;;;;;;5059744;28;20243;-57
2022/01/12 05:29:46;;;;;;;36.03;20.20;;;3.90;99.90;;;;;;5060475;28;20708;-56
2022/01/12 05:32:13;;;;;;;39.63;20.07;;;3.90;99.90;;;;;;5060803;28;20594;-62
2022/01/12 05:34:41;;;;;;;35.50;18.93;;;3.80;99.90;;;;;;5059383;28;20219;-56
2022/01/12 05:37:08;;;;;;;36.43;19.53;;;3.80;99.90;;;;;;5059918;28;20186;-56
2022/01/12 05:39:35;;;;;;;35.87;19.03;;;3.90;99.90;;;;;;5059972;28;20321;-56
2022/01/12 05:42:23;;;;;;;35.77;19.23;;;3.80;99.90;;;;;;5045298;28;20263;-56
2022/01/12 05:44:50;;;;;;;35.57;19.30;;;3.80;99.90;;;;;;5058722;28;20297;-56
2022/01/12 05:47:33;;;;;;;35.03;19.50;;;3.70;99.90;;;;;;5060642;28;20213;-58
2022/01/12 05:50:00;;;;;;;36.13;18.80;;;3.80;99.90;;;;;;5060478;28;20956;-57
2022/01/12 05:52:27;;;;;;;33.27;18.07;;;3.90;99.90;;;;;;5059495;28;20210;-56
2022/01/12 05:54:54;;;;;;;33.17;18.77;;;3.70;99.90;;;;;;5061121;28;20756;-57
2022/01/12 05:57:21;;;;;;;34.00;19.03;;;3.80;99.90;;;;;;5063776;28;20219;-55
2022/01/12 05:59:48;;;;;;;32.00;18.87;;;3.70;99.90;;;;;;5061711;28;20682;-56
2022/01/12 06:02:14;;;;;;;30.00;18.17;;;3.70;99.90;;;;;;5058142;28;20203;-56
2022/01/12 06:04:42;;;;;;;33.57;19.60;;;3.70;99.90;;;;;;5059953;28;20226;-56
2022/01/12 06:07:08;;;;;;;34.20;18.90;;;3.90;99.90;;;;;;5061726;28;20224;-56
2022/01/12 06:09:35;;;;;;;40.97;19.17;;;4.00;99.90;;;;;;5061353;28;20231;-55
2022/01/12 06:12:02;;;;;;;31.27;18.73;;;4.10;99.90;;;;;;5061113;28;20207;-57
2022/01/12 06:14:30;;;;;;;35.67;19.10;;;3.90;99.90;;;;;;5061342;28;20664;-56
2022/01/12 06:16:56;;;;;;;29.73;19.00;;;3.90;99.90;;;;;;5060634;28;20222;-57
2022/01/12 06:19:23;;;;;;;32.87;17.73;;;4.10;99.90;;;;;;5061646;28;20952;-56
2022/01/12 06:21:50;;;;;;;34.07;19.37;;;4.10;99.90;;;;;;5061333;28;20287;-55
2022/01/12 06:24:17;;;;;;;38.63;19.17;;;4.20;99.90;;;;;;5060547;28;20257;-57
2022/01/12 06:26:46;;;;;;;33.20;19.20;;;4.20;99.90;;;;;;5058533;28;20294;-56
2022/01/12 06:31:46;;;;;;;33.47;16.97;;;4.00;99.90;;;;;;5060524;28;20195;-56
2022/01/12 06:34:13;;;;;;;33.50;18.40;;;3.70;99.90;;;;;;5059397;28;20215;-57
2022/01/12 06:36:40;;;;;;;32.83;19.23;;;3.80;99.90;;;;;;5059128;28;20219;-57
2022/01/12 06:39:10;;;;;;;37.83;18.33;;;3.90;99.90;;;;;;5059557;28;20240;-57
2022/01/12 06:41:38;;;;;;;32.43;18.20;;;3.90;99.90;;;;;;5057829;28;20280;-56
2022/01/12 06:44:06;;;;;;;34.47;18.60;;;4.00;99.90;;;;;;5060262;28;20204;-56
2022/01/12 06:46:35;;;;;;;35.70;19.60;;;3.90;99.90;;;;;;5059383;28;20800;-56
2022/01/12 06:49:02;;;;;;;32.10;18.40;;;3.90;99.90;;;;;;5057700;28;20253;-54
2022/01/12 06:51:29;;;;;;;33.63;18.77;;;3.80;99.90;;;;;;5059108;28;20203;-57
2022/01/12 06:53:56;;;;;;;32.60;17.60;;;3.80;99.90;;;;;;5055331;28;20203;-55
2022/01/12 06:56:23;;;;;;;37.47;18.93;;;4.00;99.90;;;;;;5059570;28;20315;-55
2022/01/12 06:58:50;;;;;;;37.53;20.20;;;3.90;99.90;;;;;;5059573;28;20678;-56
2022/01/12 07:01:17;;;;;;;37.40;18.10;;;3.80;99.90;;;;;;5056780;28;20208;-55
2022/01/12 07:03:44;;;;;;;32.70;18.00;;;3.70;99.90;;;;;;5058629;28;20203;-55
2022/01/12 07:06:11;;;;;;;41.10;19.20;;;3.70;99.90;;;;;;5058137;28;20203;-56
2022/01/12 07:08:38;;;;;;;40.80;19.57;;;3.80;99.90;;;;;;5056694;28;20231;-57
2022/01/12 07:11:05;;;;;;;38.30;19.43;;;4.00;99.90;;;;;;5059249;28;20203;-56
2022/01/12 07:13:32;;;;;;;41.87;20.40;;;4.20;99.90;;;;;;5058954;28;20541;-58
2022/01/12 07:15:59;;;;;;;36.13;19.47;;;4.20;99.90;;;;;;5057433;28;20665;-56
2022/01/12 07:18:28;;;;;;;41.63;17.90;;;4.20;99.90;;;;;;5063338;28;20238;-57
2022/01/12 07:20:58;;;;;;;39.83;19.93;;;4.20;99.90;;;;;;5058050;28;20663;-57
2022/01/12 07:23:27;;;;;;;38.53;19.40;;;4.30;99.90;;;;;;5059293;28;20679;-56
2022/01/12 07:25:54;;;;;;;38.33;19.57;;;4.40;99.90;;;;;;5058970;28;20191;-57
2022/01/12 07:28:21;;;;;;;39.67;19.67;;;4.50;99.90;;;;;;5059130;28;20845;-57
2022/01/12 07:30:50;;;;;;;42.47;20.03;;;4.60;99.90;;;;;;5056926;28;20203;-55
2022/01/12 07:33:17;;;;;;;39.63;19.77;;;4.40;99.90;;;;;;5057499;28;20230;-56
2022/01/12 07:35:44;;;;;;;39.87;19.07;;;4.30;99.90;;;;;;5056765;28;20211;-58
2022/01/12 07:38:11;;;;;;;38.83;20.03;;;4.40;99.90;;;;;;5056448;28;20279;-55
2022/01/12 07:40:38;;;;;;;39.87;19.77;;;4.40;99.90;;;;;;5039675;28;20346;-57
2022/01/12 07:43:06;;;;;;;42.47;18.67;;;4.40;99.90;;;;;;5036674;28;20215;-55
2022/01/12 07:45:35;;;;;;;44.37;21.03;;;4.50;99.90;;;;;;5037656;28;20391;-56
2022/01/12 07:48:02;;;;;;;44.63;21.10;;;4.60;99.90;;;;;;5034961;28;20310;-56
2022/01/12 07:50:29;;;;;;;43.23;19.67;;;4.70;99.90;;;;;;5018091;28;20222;-58
2022/01/12 07:52:56;;;;;;;47.47;20.30;;;4.70;99.90;;;;;;5019325;28;20212;-57
2022/01/12 07:55:24;;;;;;;49.13;19.83;;;4.60;99.90;;;;;;5022615;28;20220;-57
2022/01/12 07:57:51;;;;;;;38.57;18.10;;;4.60;99.90;;;;;;5020526;28;20265;-57
2022/01/12 08:00:20;;;;;;;37.10;17.80;;;4.60;99.90;;;;;;5036742;28;20266;-56
2022/01/12 08:02:49;;;;;;;36.03;16.73;;;4.60;99.90;;;;;;5036081;28;20224;-56
2022/01/12 08:05:19;;;;;;;40.13;16.77;;;4.60;99.90;;;;;;5034244;28;20209;-58
2022/01/12 08:07:47;;;;;;;38.87;16.40;;;4.70;99.90;;;;;;5036648;28;20333;-56
2022/01/12 08:10:15;;;;;;;39.67;16.53;;;4.80;99.90;;;;;;5031444;28;20224;-57
2022/01/12 08:12:42;;;;;;;33.47;15.60;;;4.80;99.90;;;;;;5035860;28;20204;-58
2022/01/12 08:15:10;;;;;;;36.10;16.23;;;4.90;99.90;;;;;;5035157;28;21012;-58
2022/01/12 08:17:37;;;;;;;39.23;14.90;;;4.80;99.90;;;;;;5035908;28;20275;-57
2022/01/12 08:20:07;;;;;;;35.30;14.83;;;4.90;99.90;;;;;;5033978;28;20214;-57
2022/01/12 08:22:34;;;;;;;37.27;14.83;;;4.80;99.90;;;;;;5036918;28;20242;-55
2022/01/12 08:25:02;;;;;;;35.30;14.10;;;4.80;99.90;;;;;;5035714;28;20196;-54
2022/01/12 08:27:29;;;;;;;32.33;15.47;;;4.80;99.90;;;;;;5037738;28;20203;-58
2022/01/12 08:30:00;;;;;;;34.90;15.57;;;4.90;99.90;;;;;;5021726;28;20200;-58
2022/01/12 08:32:30;;;;;;;34.07;14.23;;;5.00;99.90;;;;;;5038065;28;20203;-58
2022/01/12 08:34:57;;;;;;;29.27;14.80;;;5.00;99.90;;;;;;5019829;28;20731;-57
2022/01/12 08:37:25;;;;;;;31.73;14.10;;;4.90;99.90;;;;;;5021905;28;20216;-56
2022/01/12 08:39:52;;;;;;;31.73;14.43;;;4.90;99.90;;;;;;5029698;28;20765;-56
2022/01/12 08:42:20;;;;;;;36.40;14.27;;;5.00;99.90;;;;;;5056563;28;20215;-55
2022/01/12 08:44:47;;;;;;;32.77;14.63;;;5.00;99.90;;;;;;5057307;28;20294;-60
2022/01/12 08:47:13;;;;;;;31.60;14.53;;;5.00;99.90;;;;;;5055310;28;20278;-57
2022/01/12 08:49:40;;;;;;;31.47;13.03;;;4.90;99.90;;;;;;5053652;28;20199;-57
2022/01/12 08:52:08;;;;;;;38.60;13.57;;;4.80;99.90;;;;;;5057530;28;20226;-57
2022/01/12 08:54:35;;;;;;;34.60;15.50;;;4.80;99.90;;;;;;5059503;28;20223;-55
2022/01/12 08:57:02;;;;;;;33.03;14.53;;;4.90;99.90;;;;;;5060900;28;20219;-57
2022/01/12 08:59:29;;;;;;;32.13;14.67;;;5.10;99.90;;;;;;5059742;28;20191;-56
2022/01/12 09:01:57;;;;;;;32.90;14.43;;;5.10;99.90;;;;;;5059975;28;20199;-56
2022/01/12 09:04:24;;;;;;;26.27;14.63;;;5.20;99.90;;;;;;5057943;28;20207;-55
2022/01/12 09:06:51;;;;;;;30.07;14.33;;;5.30;99.90;;;;;;5055965;28;20346;-55
2022/01/12 09:09:18;;;;;;;32.00;15.00;;;5.30;99.90;;;;;;5055898;28;20231;-56
2022/01/12 09:11:45;;;;;;;28.93;14.10;;;5.40;99.90;;;;;;5059898;28;20214;-57
2022/01/12 09:14:12;;;;;;;29.50;14.40;;;5.30;99.90;;;;;;5058776;28;20253;-56
2022/01/12 09:16:38;;;;;;;27.97;12.23;;;5.30;99.90;;;;;;5056353;28;20677;-59
2022/01/12 09:19:05;;;;;;;27.60;13.40;;;5.20;99.90;;;;;;5054892;28;20210;-57
2022/01/12 09:21:33;;;;;;;32.10;14.43;;;5.20;99.90;;;;;;5055039;28;20199;-55
2022/01/12 09:24:00;;;;;;;30.10;13.87;;;5.20;99.90;;;;;;5056280;28;20248;-55
2022/01/12 09:26:27;;;;;;;30.67;13.07;;;5.30;99.90;;;;;;5054456;28;20285;-56
2022/01/12 09:28:54;;;;;;;30.80;14.00;;;5.30;99.90;;;;;;5060841;28;20648;-57
2022/01/12 09:31:22;;;;;;;38.57;14.43;;;5.40;99.90;;;;;;5061786;28;20207;-59
2022/01/12 09:33:50;;;;;;;28.40;13.77;;;5.40;99.90;;;;;;5058852;28;20204;-55
2022/01/12 09:36:17;;;;;;;29.57;13.67;;;5.40;99.90;;;;;;5058179;28;20219;-56
2022/01/12 09:38:44;;;;;;;29.80;13.90;;;5.60;99.90;;;;;;5050814;28;20280;-56
2022/01/12 09:41:11;;;;;;;30.13;15.63;;;5.60;99.90;;;;;;5057983;28;20304;-56
2022/01/12 09:43:40;;;;;;;29.67;14.00;;;5.50;99.90;;;;;;5056397;28;20677;-57
2022/01/12 09:46:08;;;;;;;29.63;13.53;;;5.60;99.90;;;;;;5054918;28;20211;-55
2022/01/12 09:48:36;;;;;;;28.33;14.30;;;5.60;99.90;;;;;;5057653;28;20321;-57
2022/01/12 09:51:06;;;;;;;29.37;14.17;;;5.50;99.90;;;;;;5058365;28;20204;-56
2022/01/12 09:53:36;;;;;;;24.73;12.83;;;5.60;99.90;;;;;;5055796;28;20215;-56
2022/01/12 09:56:26;;;;;;;27.67;12.90;;;5.40;99.90;;;;;;5059454;28;20208;-56
2022/01/12 09:58:54;;;;;;;28.77;13.90;;;5.40;99.90;;;;;;5057112;28;20658;-55
2022/01/12 10:01:23;;;;;;;27.60;13.53;;;5.50;99.90;;;;;;5052826;28;20203;-57
2022/01/12 10:03:50;;;;;;;29.80;13.77;;;5.40;99.90;;;;;;5054709;28;20199;-57
2022/01/12 10:06:17;;;;;;;30.93;13.30;;;5.40;99.90;;;;;;5054273;28;20207;-56
2022/01/12 10:08:44;;;;;;;29.37;13.37;;;5.40;99.90;;;;;;5053556;28;20278;-57
2022/01/12 10:11:14;;;;;;;27.63;13.67;;;5.30;99.90;;;;;;5058925;28;20200;-56
2022/01/12 10:13:41;;;;;;;28.27;15.03;;;5.30;99.90;;;;;;5059021;28;20199;-57
2022/01/12 10:16:17;;;;;;;30.23;13.23;;;5.40;99.90;;;;;;5056050;28;20292;-56
2022/01/12 10:18:50;;;;;;;27.20;13.60;;;5.50;99.90;;;;;;5058823;28;20217;-57
2022/01/12 10:21:38;;;;;;;30.53;14.23;;;5.40;99.90;;;;;;5052822;28;20283;-57
2022/01/12 10:24:09;;;;;;;30.23;13.47;;;5.30;99.90;;;;;;5058464;28;20195;-56
2022/01/12 10:26:39;;;;;;;25.90;13.93;;;5.50;99.90;;;;;;5061455;28;20208;-56
2022/01/12 10:29:20;;;;;;;31.43;14.57;;;5.50;99.90;;;;;;5056194;28;20203;-57
2022/01/12 10:31:52;;;;;;;28.53;14.10;;;5.40;99.90;;;;;;5057081;28;20203;-56
2022/01/12 10:34:25;;;;;;;27.70;14.57;;;5.50;99.90;;;;;;5054864;28;20205;-57
2022/01/12 10:36:54;;;;;;;34.70;13.80;;;5.50;99.90;;;;;;5058808;28;20217;-56
2022/01/12 10:39:25;;;;;;;28.90;13.23;;;5.50;99.90;;;;;;5057929;28;20199;-62
2022/01/12 10:42:00;;;;;;;30.90;13.80;;;5.40;99.90;;;;;;5057474;28;20342;-60
2022/01/12 10:44:30;;;;;;;34.57;13.97;;;5.50;99.90;;;;;;5058282;28;20198;-55
2022/01/12 10:47:20;;;;;;;31.10;13.53;;;5.50;99.90;;;;;;5059074;28;20232;-56
2022/01/12 10:49:58;;;;;;;31.57;14.37;;;5.60;99.90;;;;;;5056050;28;20209;-57
2022/01/12 10:52:30;;;;;;;30.43;13.47;;;5.60;99.90;;;;;;5056453;28;20235;-57
2022/01/12 10:55:18;;;;;;;26.00;14.57;;;5.60;99.90;;;;;;5056711;28;20214;-58
2022/01/12 10:57:47;;;;;;;28.60;14.27;;;5.60;99.90;;;;;;5060207;28;20315;-55
2022/01/12 11:00:20;;;;;;;27.33;14.57;;;5.70;99.90;;;;;;5055816;28;20197;-54
2022/01/12 11:02:49;;;;;;;24.73;13.53;;;5.70;99.90;;;;;;5055920;28;20200;-63
2022/01/12 11:05:22;;;;;;;25.40;14.60;;;5.60;99.90;;;;;;5051884;28;20197;-58
2022/01/12 11:07:50;;;;;;;29.20;15.30;;;5.60;99.90;;;;;;5054491;28;20212;-54
2022/01/12 11:10:19;;;;;;;36.97;14.67;;;5.50;99.90;;;;;;5054661;28;20312;-57
2022/01/12 11:12:48;;;;;;;26.97;13.87;;;5.50;99.90;;;;;;5056537;28;20205;-56
2022/01/12 11:15:18;;;;;;;34.70;16.40;;;5.60;99.90;;;;;;5059220;28;20201;-56
2022/01/12 11:17:46;;;;;;;28.47;14.30;;;5.60;99.90;;;;;;5057421;28;20221;-56
2022/01/12 11:20:25;;;;;;;30.97;15.43;;;5.60;99.90;;;;;;5071791;28;20665;-56
2022/01/12 11:23:09;;;;;;;31.27;15.17;;;5.60;99.90;;;;;;5054778;28;20312;-56
2022/01/12 11:25:45;;;;;;;32.20;15.07;;;5.70;99.90;;;;;;5056568;28;20207;-57
2022/01/12 11:28:20;;;;;;;32.90;15.30;;;5.70;99.90;;;;;;5056116;28;20211;-56
2022/01/12 11:30:55;;;;;;;31.23;15.00;;;5.70;99.90;;;;;;5055530;28;20205;-56
2022/01/12 11:33:33;;;;;;;36.80;14.67;;;5.80;99.90;;;;;;5056362;28;20264;-57
2022/01/12 11:36:24;;;;;;;29.90;14.97;;;5.90;99.90;;;;;;5048864;28;20208;-56
2022/01/12 11:39:03;;;;;;;33.70;16.93;;;5.80;99.90;;;;;;5056807;28;20197;-56
2022/01/12 11:41:49;;;;;;;32.80;14.83;;;5.90;99.90;;;;;;5055751;28;20209;-55
2022/01/12 11:44:22;;;;;;;30.63;15.23;;;5.70;99.90;;;;;;5055480;28;20279;-56
2022/01/12 11:46:54;;;;;;;32.77;15.57;;;5.80;99.90;;;;;;5056916;28;20274;-57
2022/01/12 11:49:29;;;;;;;32.17;16.10;;;5.90;99.90;;;;;;5055968;28;20659;-55
2022/01/12 11:51:58;;;;;;;33.80;15.93;;;6.00;99.90;;;;;;5056964;28;20246;-54
2022/01/12 11:54:36;;;;;;;31.53;14.77;;;5.80;99.90;;;;;;5055636;28;20263;-55
2022/01/12 11:57:07;;;;;;;32.87;15.73;;;5.70;99.90;;;;;;5055288;28;20687;-56
2022/01/12 11:59:57;;;;;;;33.63;15.27;;;5.90;99.90;;;;;;5058013;28;20673;-57
2022/01/12 12:02:36;;;;;;;29.80;15.43;;;6.00;99.90;;;;;;5056711;28;20199;-56
2022/01/12 12:05:09;;;;;;;36.23;15.50;;;6.10;99.90;;;;;;5053521;28;20305;-55
2022/01/12 12:07:51;;;;;;;34.17;14.67;;;6.10;99.90;;;;;;5054204;28;20214;-57
2022/01/12 12:10:23;;;;;;;28.53;14.33;;;6.20;99.90;;;;;;5055353;28;20257;-57
2022/01/12 12:12:51;;;;;;;35.53;14.23;;;6.20;99.90;;;;;;5056334;28;20246;-55
2022/01/12 12:15:18;;;;;;;31.27;14.57;;;6.30;99.90;;;;;;5046480;28;20276;-56
2022/01/12 12:17:45;;;;;;;27.47;14.33;;;6.30;99.90;;;;;;5055488;28;20222;-55
2022/01/12 12:20:18;;;;;;;28.63;14.13;;;6.20;99.90;;;;;;5055861;28;20203;-55
2022/01/12 12:22:47;;;;;;;28.20;13.90;;;6.40;99.90;;;;;;5054748;28;20201;-55
2022/01/12 12:25:20;;;;;;;30.60;14.30;;;6.40;99.90;;;;;;5052200;28;20212;-55
2022/01/12 12:27:52;;;;;;;25.97;13.40;;;6.30;99.90;;;;;;5049935;28;20198;-54
2022/01/12 12:30:22;;;;;;;30.27;13.10;;;6.30;99.90;;;;;;5056085;28;20203;-56
2022/01/12 12:32:52;;;;;;;24.40;13.07;;;6.20;99.90;;;;;;5073690;28;20682;-56
2022/01/12 12:35:26;;;;;;;33.43;14.47;;;6.10;99.90;;;;;;5051043;28;20210;-56
2022/01/12 12:38:02;;;;;;;29.77;13.57;;;6.30;99.90;;;;;;5054048;28;20213;-56
2022/01/12 12:40:32;;;;;;;29.87;13.93;;;6.30;99.90;;;;;;5043623;28;20287;-57
2022/01/12 12:43:18;;;;;;;29.03;14.10;;;6.20;99.90;;;;;;5033827;28;20293;-56
2022/01/12 12:46:00;;;;;;;25.93;14.63;;;6.20;99.90;;;;;;5013247;28;20718;-56
2022/01/12 12:48:34;;;;;;;30.57;15.00;;;5.80;99.90;;;;;;5031560;28;20258;-58
2022/01/12 12:51:11;;;;;;;27.80;14.47;;;5.70;99.90;;;;;;5032143;28;20213;-55
2022/01/12 12:53:41;;;;;;;27.03;13.97;;;5.20;99.90;;;;;;5032884;28;20331;-57
2022/01/12 12:56:16;;;;;;;28.87;13.53;;;5.30;99.90;;;;;;5034439;28;20207;-55
2022/01/12 12:58:54;;;;;;;29.87;14.83;;;5.40;99.90;;;;;;5035321;28;20222;-56
2022/01/12 13:01:23;;;;;;;27.23;13.17;;;5.60;99.90;;;;;;5034031;28;20206;-54
2022/01/12 13:03:54;;;;;;;28.00;13.70;;;5.70;99.90;;;;;;5033450;28;20202;-55
2022/01/12 13:06:26;;;;;;;32.43;14.90;;;5.90;99.90;;;;;;5030172;28;20212;-56
2022/01/12 13:08:55;;;;;;;28.93;14.37;;;6.00;99.90;;;;;;5029134;28;20256;-57
2022/01/12 13:11:28;;;;;;;24.73;13.30;;;6.10;99.90;;;;;;5034972;28;20624;-55
2022/01/12 13:14:06;;;;;;;29.13;13.53;;;6.20;99.90;;;;;;5018507;28;20230;-55
2022/01/12 13:16:34;;;;;;;34.50;14.37;;;6.10;99.90;;;;;;5034223;28;20301;-55
2022/01/12 13:19:19;;;;;;;26.07;13.10;;;6.00;99.90;;;;;;5032396;28;20723;-56
2022/01/12 13:21:47;;;;;;;26.67;13.80;;;6.10;99.90;;;;;;5012981;28;20202;-56
2022/01/12 13:24:14;;;;;;;29.60;14.37;;;6.20;99.90;;;;;;5028014;28;20198;-56
2022/01/12 13:26:41;;;;;;;29.67;14.47;;;6.20;99.90;;;;;;5034106;28;20226;-57
2022/01/12 13:29:12;;;;;;;28.57;13.70;;;6.00;99.90;;;;;;5018278;28;20199;-56
2022/01/12 13:31:43;;;;;;;27.00;12.73;;;6.10;99.90;;;;;;5038572;28;20594;-56
2022/01/12 13:34:13;;;;;;;22.50;12.77;;;5.90;99.90;;;;;;5036977;28;20990;-56
2022/01/12 13:36:49;;;;;;;25.17;13.20;;;6.00;99.90;;;;;;5037027;28;20597;-55
2022/01/12 13:39:16;;;;;;;27.43;13.13;;;6.00;99.90;;;;;;5038524;28;20666;-56
2022/01/12 13:41:47;;;;;;;28.10;13.17;;;6.30;99.90;;;;;;5059457;28;20207;-56
2022/01/12 13:44:24;;;;;;;26.97;13.03;;;6.00;99.90;;;;;;5059201;28;20290;-56
2022/01/12 13:47:23;;;;;;;22.00;12.80;;;5.60;99.90;;;;;;5060711;28;20737;-57
2022/01/12 13:50:09;;;;;;;24.27;11.57;;;5.70;99.90;;;;;;5056176;28;20305;-56
2022/01/12 13:52:36;;;;;;;23.93;13.13;;;5.80;99.90;;;;;;5061857;28;20347;-54
2022/01/12 13:55:11;;;;;;;22.40;11.93;;;5.40;99.90;;;;;;5062064;28;20206;-57
2022/01/12 13:57:38;;;;;;;24.97;12.40;;;5.30;99.90;;;;;;5061106;28;20224;-55
2022/01/12 14:00:09;;;;;;;31.50;13.13;;;5.60;99.90;;;;;;5056243;28;20271;-55
2022/01/12 14:02:43;;;;;;;26.03;11.87;;;5.50;99.90;;;;;;5056121;28;20233;-56
2022/01/12 14:05:17;;;;;;;30.40;14.07;;;5.50;99.90;;;;;;5058378;28;20206;-58
2022/01/12 14:07:59;;;;;;;27.23;13.53;;;5.40;99.90;;;;;;5060019;28;20816;-55
2022/01/12 14:10:31;;;;;;;30.70;12.13;;;5.30;99.90;;;;;;5058793;28;20264;-56
2022/01/12 14:12:58;;;;;;;26.00;12.83;;;5.30;99.90;;;;;;5059143;28;20216;-57
2022/01/12 14:15:27;;;;;;;25.50;12.93;;;5.50;99.90;;;;;;5057988;28;20273;-56
2022/01/12 14:17:55;;;;;;;25.57;12.60;;;5.10;99.90;;;;;;5059810;28;20223;-57